createdAt,value
2019-02-28T00:01:59.418Z,59.10
2019-02-28T00:04:36.414Z,76.50
2019-02-28T00:07:17.561Z,60.70
2019-02-28T00:09:51.677Z,62.30
2019-02-28T00:12:28.734Z,60.70
2019-02-28T00:17:42.875Z,59.00
2019-02-28T00:20:18.716Z,59.90
2019-02-28T00:22:56.201Z,59.70
2019-02-28T00:25:37.699Z,88.10
2019-02-28T00:28:11.450Z,74.90
2019-02-28T00:30:49.707Z,82.50
2019-02-28T00:33:27.044Z,85.50
2019-02-28T00:36:04.145Z,90.60
2019-02-28T00:38:41.253Z,65.70
2019-02-28T00:41:18.362Z,66.20
2019-02-28T00:43:58.371Z,65.80
2019-02-28T00:49:10.004Z,66.10
2019-02-28T00:51:47.398Z,66.60
2019-02-28T00:56:59.012Z,66.20
2019-02-28T00:59:36.257Z,63.40
2019-02-28T01:02:13.297Z,66.70
2019-02-28T01:04:50.533Z,66.10
2019-02-28T01:15:14.794Z,62.00
2019-02-28T01:17:51.999Z,60.20
2019-02-28T01:20:29.181Z,65.30
2019-02-28T01:23:07.151Z,61.10
2019-02-28T01:25:44.273Z,64.20
2019-02-28T01:28:26.589Z,62.70
2019-02-28T01:33:35.422Z,62.70
2019-02-28T01:36:15.301Z,61.50
2019-02-28T01:44:01.654Z,62.10
2019-02-28T01:51:47.168Z,62.20
2019-02-28T01:54:27.293Z,62.80
2019-02-28T01:57:02.574Z,58.30
2019-02-28T02:02:15.774Z,61.50
2019-02-28T02:04:53.026Z,61.50
2019-02-28T02:07:30.543Z,61.90
2019-02-28T02:10:10.149Z,63.60
2019-02-28T02:12:47.322Z,61.40
2019-02-28T02:15:26.030Z,60.80
2019-02-28T02:18:03.061Z,58.80
2019-02-28T02:20:40.102Z,62.40
2019-02-28T02:23:18.067Z,62.20
2019-02-28T02:25:55.202Z,62.60
2019-02-28T02:28:32.374Z,62.80
2019-02-28T02:38:55.016Z,63.10
2019-02-28T02:41:33.448Z,63.20
2019-02-28T02:44:10.185Z,63.10
2019-02-28T02:46:47.287Z,63.90
2019-02-28T02:49:24.345Z,65.60
2019-02-28T02:52:01.404Z,66.30
2019-02-28T02:59:48.729Z,57.00
2019-02-28T03:02:28.779Z,61.60
2019-02-28T03:12:48.670Z,60.70
2019-02-28T03:15:27.085Z,62.90
2019-02-28T03:18:04.043Z,62.20
2019-02-28T03:20:42.299Z,62.90
2019-02-28T03:23:19.568Z,64.00
2019-02-28T03:31:14.427Z,63.70
2019-02-28T03:38:55.254Z,62.50
2019-02-28T03:41:32.336Z,62.80
2019-02-28T03:44:09.417Z,62.10
2019-02-28T03:46:47.789Z,63.90
2019-02-28T03:49:24.739Z,61.90
2019-02-28T03:52:05.954Z,57.30
2019-02-28T03:54:40.010Z,59.30
2019-02-28T03:57:17.266Z,59.50
2019-02-28T04:10:16.780Z,63.20
2019-02-28T04:20:41.036Z,62.80
2019-02-28T04:23:18.123Z,64.90
2019-02-28T04:25:56.877Z,65.10
2019-02-28T04:28:33.503Z,64.90
2019-02-28T04:31:18.402Z,66.60
2019-02-28T04:33:51.645Z,55.00
2019-02-28T04:36:28.667Z,54.20
2019-02-28T04:39:06.774Z,54.50
2019-02-28T04:41:44.036Z,65.20
2019-02-28T04:44:21.039Z,63.80
2019-02-28T04:46:58.381Z,66.40
2019-02-28T04:49:40.447Z,67.60
2019-02-28T04:52:17.438Z,66.60
2019-02-28T04:54:54.648Z,66.90
2019-02-28T04:57:31.780Z,67.90
2019-02-28T05:00:09.117Z,67.80
2019-02-28T05:02:47.563Z,68.60
2019-02-28T05:10:35.582Z,66.30
2019-02-28T05:13:14.291Z,66.30
2019-02-28T05:15:50.958Z,63.50
2019-02-28T05:18:28.240Z,64.80
2019-02-28T05:23:39.859Z,52.20
2019-02-28T05:26:17.010Z,52.00
2019-02-28T05:28:55.679Z,59.00
2019-02-28T05:31:32.877Z,65.40
2019-02-28T05:41:54.891Z,61.30
2019-02-28T05:44:32.064Z,65.90
2019-02-28T05:47:09.105Z,64.60
2019-02-28T05:49:46.196Z,65.10
2019-02-28T05:52:23.195Z,62.80
2019-02-28T05:57:35.036Z,63.40
2019-02-28T06:00:15.752Z,63.80
2019-02-28T06:02:54.420Z,64.00
2019-02-28T06:05:32.281Z,67.90
2019-02-28T06:08:09.380Z,64.30
2019-02-28T06:10:47.718Z,65.30
2019-02-28T06:13:25.087Z,63.40
2019-02-28T06:16:03.023Z,62.70
2019-02-28T06:18:40.082Z,60.90
2019-02-28T06:21:17.251Z,65.10
2019-02-28T06:23:54.374Z,65.60
2019-02-28T06:26:32.003Z,60.10
2019-02-28T06:29:09.720Z,67.40
2019-02-28T06:31:48.692Z,66.10
2019-02-28T06:34:24.815Z,65.00
2019-02-28T06:37:03.704Z,66.50
2019-02-28T06:42:14.678Z,64.00
2019-02-28T06:47:27.542Z,65.30
2019-02-28T06:50:04.504Z,65.30
2019-02-28T06:52:41.900Z,58.70
2019-02-28T07:00:37.956Z,60.60
2019-02-28T07:03:16.272Z,60.90
2019-02-28T07:05:57.536Z,61.30
2019-02-28T07:08:32.759Z,60.60
2019-02-28T07:13:45.571Z,60.80
2019-02-28T07:16:22.707Z,52.00
2019-02-28T07:18:59.722Z,67.60
2019-02-28T07:21:42.933Z,52.90
2019-02-28T07:24:15.064Z,53.30
2019-02-28T07:26:53.511Z,65.90
2019-02-28T07:32:06.136Z,62.50
2019-02-28T07:37:18.875Z,64.20
2019-02-28T07:39:55.906Z,65.20
2019-02-28T07:42:44.935Z,65.50
2019-02-28T07:45:22.064Z,61.60
2019-02-28T07:47:59.247Z,64.30
2019-02-28T07:50:36.281Z,64.40
2019-02-28T07:53:13.353Z,65.50
2019-02-28T07:55:50.585Z,65.80
2019-02-28T08:01:06.680Z,65.80
2019-02-28T08:06:19.470Z,69.20
2019-02-28T08:11:31.293Z,69.70
2019-02-28T08:14:09.162Z,70.50
2019-02-28T08:19:22.701Z,71.20
2019-02-28T08:21:58.873Z,71.80
2019-02-28T08:24:36.654Z,72.60
2019-02-28T08:27:13.784Z,66.80
2019-02-28T08:29:51.061Z,72.70
2019-02-28T08:35:04.468Z,73.20
2019-02-28T08:40:19.783Z,73.50
2019-02-28T08:42:56.877Z,68.00
2019-02-28T08:48:09.923Z,71.30
2019-02-28T08:50:47.149Z,78.30
2019-02-28T08:53:24.268Z,75.80
2019-02-28T08:56:01.317Z,75.40
2019-02-28T08:58:38.534Z,76.20
2019-02-28T09:01:19.647Z,75.90
2019-02-28T09:03:59.800Z,76.30
2019-02-28T09:06:37.842Z,75.80
2019-02-28T09:11:57.815Z,75.40
2019-02-28T09:14:32.370Z,75.00
2019-02-28T09:22:19.054Z,78.80
2019-02-28T09:24:56.186Z,71.60
2019-02-28T09:30:08.613Z,75.90
2019-02-28T09:32:48.321Z,70.40
2019-02-28T09:43:18.578Z,75.70
2019-02-28T09:48:30.671Z,76.40
2019-02-28T09:51:07.985Z,76.70
2019-02-28T09:53:47.346Z,76.60
2019-02-28T09:56:23.486Z,75.40
2019-02-28T09:59:03.280Z,76.40
2019-02-28T10:01:39.266Z,76.70
2019-02-28T10:04:16.373Z,77.00
2019-02-28T10:06:53.811Z,77.00
2019-02-28T10:09:30.915Z,77.10
2019-02-28T10:12:08.849Z,81.30
2019-02-28T10:14:46.355Z,75.90
2019-02-28T10:17:25.870Z,72.70
2019-02-28T10:20:01.504Z,76.20
2019-02-28T10:22:38.595Z,77.10
2019-02-28T10:33:03.805Z,77.20
2019-02-28T10:35:40.956Z,78.50
2019-02-28T10:38:18.127Z,77.40
2019-02-28T10:40:55.224Z,72.10
2019-02-28T10:43:32.701Z,78.00
2019-02-28T10:46:09.963Z,78.50
2019-02-28T10:48:50.755Z,81.50
2019-02-28T10:53:59.674Z,79.00
2019-02-28T10:56:36.797Z,79.50
2019-02-28T10:59:14.615Z,80.00
2019-02-28T11:01:52.273Z,81.00
2019-02-28T11:04:30.231Z,80.70
2019-02-28T11:07:07.311Z,80.90
2019-02-28T11:09:44.437Z,80.30
2019-02-28T11:12:23.731Z,80.10
2019-02-28T11:14:59.815Z,80.90
2019-02-28T11:20:21.795Z,79.90
2019-02-28T11:22:51.187Z,80.50
2019-02-28T11:25:34.626Z,80.10
2019-02-28T11:30:44.788Z,76.90
2019-02-28T11:33:22.884Z,81.70
2019-02-28T11:36:00.021Z,81.90
2019-02-28T11:38:37.072Z,81.60
2019-02-28T11:41:15.498Z,81.30
2019-02-28T11:43:53.529Z,80.80
2019-02-28T11:46:35.814Z,79.80
2019-02-28T11:49:08.977Z,80.70
2019-02-28T11:51:46.226Z,81.30
2019-02-28T11:54:24.729Z,80.40
2019-02-28T11:57:03.117Z,80.70
2019-02-28T11:59:40.262Z,80.30
2019-02-28T12:04:52.578Z,75.10
2019-02-28T12:10:04.460Z,81.70
2019-02-28T12:12:44.416Z,80.70
2019-02-28T12:17:55.211Z,77.40
2019-02-28T12:23:07.045Z,81.20
2019-02-28T12:25:44.387Z,81.90
2019-02-28T12:30:57.316Z,81.40
2019-02-28T12:33:34.391Z,81.00
2019-02-28T12:36:14.339Z,81.40
2019-02-28T12:44:00.178Z,81.60
2019-02-28T12:46:37.338Z,81.70
2019-02-28T12:49:14.540Z,82.00
2019-02-28T12:51:51.728Z,82.80
2019-02-28T12:54:30.351Z,82.10
2019-02-28T12:57:07.100Z,82.10
2019-02-28T12:59:45.816Z,82.40
2019-02-28T13:04:56.952Z,83.10
2019-02-28T13:07:34.653Z,83.70
2019-02-28T13:12:48.936Z,84.00
2019-02-28T13:15:25.500Z,83.80
2019-02-28T13:18:07.169Z,84.30
2019-02-28T13:20:41.240Z,84.40
2019-02-28T13:23:18.304Z,86.70
2019-02-28T13:25:59.971Z,84.30
2019-02-28T13:28:34.848Z,84.30
2019-02-28T13:31:12.366Z,85.20
2019-02-28T13:36:26.784Z,85.80
2019-02-28T13:39:03.869Z,85.70
2019-02-28T13:41:42.433Z,85.40
2019-02-28T13:46:56.654Z,85.70
2019-02-28T13:49:35.987Z,86.10
2019-02-28T13:52:18.843Z,86.10
2019-02-28T13:54:50.415Z,86.60
2019-02-28T13:57:27.583Z,86.40
2019-02-28T14:00:07.795Z,86.10
2019-02-28T14:02:43.167Z,86.40
2019-02-28T14:05:20.306Z,80.60
2019-02-28T14:07:57.845Z,87.20
2019-02-28T14:10:35.174Z,86.60
2019-02-28T14:13:12.585Z,87.80
2019-02-28T14:15:52.411Z,87.20
2019-02-28T14:18:28.793Z,87.30
2019-02-28T14:21:05.928Z,87.80
2019-02-28T14:23:43.051Z,88.90
2019-02-28T14:26:20.092Z,87.30
2019-02-28T14:28:57.255Z,74.10
2019-02-28T14:31:36.166Z,74.40
2019-02-28T14:34:13.177Z,74.70
2019-02-28T14:36:50.239Z,74.30
2019-02-28T14:39:27.389Z,74.30
2019-02-28T14:42:06.748Z,74.40
2019-02-28T14:44:43.942Z,74.30
2019-02-28T14:47:21.013Z,74.30
2019-02-28T14:49:58.217Z,74.20
2019-02-28T14:52:35.869Z,74.20
2019-02-28T14:55:15.077Z,74.10
2019-02-28T14:57:52.252Z,74.10
2019-02-28T15:00:35.369Z,75.40
2019-02-28T15:03:12.332Z,80.60
2019-02-28T15:05:52.478Z,75.00
2019-02-28T15:08:27.879Z,75.40
2019-02-28T15:11:06.543Z,75.40
2019-02-28T15:13:43.108Z,75.20
2019-02-28T15:16:21.599Z,74.90
2019-02-28T15:18:58.524Z,76.60
2019-02-28T15:21:35.790Z,77.20
2019-02-28T15:24:12.951Z,74.80
2019-02-28T15:26:50.075Z,74.80
2019-02-28T15:29:27.177Z,74.30
2019-02-28T15:32:04.296Z,74.30
2019-02-28T15:34:45.349Z,74.10
2019-02-28T15:37:22.621Z,75.00
2019-02-28T15:39:59.714Z,74.10
2019-02-28T15:42:39.675Z,74.20
2019-02-28T15:45:16.407Z,74.20
2019-02-28T15:53:07.971Z,89.50
2019-02-28T15:55:45.095Z,74.20
2019-02-28T16:00:59.411Z,73.50
2019-02-28T16:03:36.610Z,74.00
2019-02-28T16:06:16.127Z,74.30
2019-02-28T16:08:52.120Z,74.40
2019-02-28T16:11:29.337Z,75.50
2019-02-28T16:14:14.569Z,77.70
2019-02-28T16:16:47.510Z,80.00
2019-02-28T16:22:01.753Z,88.80
2019-02-28T16:24:39.859Z,74.40
2019-02-28T16:27:19.435Z,84.00
2019-02-28T16:29:56.730Z,74.80
2019-02-28T16:32:33.871Z,90.30
2019-02-28T16:35:14.703Z,88.50
2019-02-28T16:37:49.637Z,74.60
2019-02-28T16:40:27.401Z,89.60
2019-02-28T16:43:04.649Z,88.50
2019-02-28T16:45:45.315Z,89.40
2019-02-28T16:48:22.421Z,89.30
2019-02-28T16:50:59.591Z,88.80
2019-02-28T16:53:36.720Z,89.30
2019-02-28T16:56:15.821Z,88.80
2019-02-28T16:58:57.274Z,81.90
2019-02-28T17:01:32.429Z,89.40
2019-02-28T17:04:09.536Z,89.70
2019-02-28T17:06:46.933Z,74.10
2019-02-28T17:09:30.311Z,89.80
2019-02-28T17:12:11.640Z,74.20
2019-02-28T17:14:49.210Z,74.10
2019-02-28T17:17:31.759Z,73.90
2019-02-28T17:20:09.037Z,74.10
2019-02-28T17:22:46.365Z,73.90
2019-02-28T17:25:23.622Z,74.90
2019-02-28T17:28:08.936Z,74.30
2019-02-28T17:30:51.765Z,90.30
2019-02-28T17:33:28.988Z,90.20
2019-02-28T17:36:08.454Z,90.30
2019-02-28T17:38:44.689Z,74.60
2019-02-28T17:41:21.866Z,74.50
2019-02-28T17:44:28.584Z,89.80
2019-02-28T17:47:07.701Z,73.70
2019-02-28T17:50:31.283Z,92.60
2019-02-28T17:53:19.792Z,94.20
2019-02-28T17:56:22.763Z,95.90
2019-02-28T17:59:25.597Z,97.10
2019-02-28T18:08:06.752Z,99.90
2019-02-28T18:11:21.935Z,99.90
2019-02-28T18:26:02.265Z,73.70
2019-02-28T18:29:03.764Z,74.70
2019-02-28T18:31:41.963Z,79.50
2019-02-28T18:36:59.105Z,74.10
2019-02-28T18:39:36.311Z,80.40
2019-02-28T18:42:16.020Z,89.80
2019-02-28T18:44:51.872Z,75.90
2019-02-28T18:47:29.081Z,91.10
2019-02-28T18:50:06.239Z,84.20
2019-02-28T18:55:17.495Z,94.30
2019-02-28T18:57:54.783Z,76.10
2019-02-28T19:00:31.959Z,76.30
2019-02-28T19:03:09.015Z,76.60
2019-02-28T19:05:46.342Z,91.00
2019-02-28T19:08:23.420Z,87.30
2019-02-28T19:13:36.131Z,99.90
2019-02-28T19:31:45.955Z,89.50
2019-02-28T19:39:33.818Z,90.00
2019-02-28T19:42:11.033Z,89.90
2019-02-28T19:44:48.267Z,90.50
2019-02-28T19:50:01.106Z,89.70
2019-02-28T19:52:38.287Z,90.40
2019-02-28T19:55:17.263Z,90.40
2019-02-28T19:57:54.484Z,90.40
2019-02-28T20:05:41.066Z,90.20
2019-02-28T20:08:18.026Z,90.00
2019-02-28T20:10:55.117Z,89.70
2019-02-28T20:13:32.379Z,89.30
2019-02-28T20:16:09.767Z,90.00
2019-02-28T20:18:50.398Z,90.10
2019-02-28T20:21:27.416Z,90.20
2019-02-28T20:24:04.990Z,90.80
2019-02-28T20:26:43.365Z,89.80
2019-02-28T20:29:20.498Z,89.80
2019-02-28T20:31:57.643Z,89.70
2019-02-28T20:34:34.784Z,89.30
2019-02-28T20:39:46.683Z,89.60
2019-02-28T20:44:58.541Z,83.20
2019-02-28T20:50:16.152Z,86.50
2019-02-28T20:52:53.354Z,88.80
2019-02-28T20:55:31.231Z,88.60
2019-02-28T21:03:17.676Z,88.00
2019-02-28T21:08:29.535Z,87.10
2019-02-28T21:11:06.802Z,87.40
2019-02-28T21:13:44.209Z,88.00
2019-02-28T21:16:21.316Z,87.90
2019-02-28T21:18:58.413Z,87.70
2019-02-28T21:21:35.667Z,87.30
2019-02-28T21:24:12.807Z,86.90
2019-02-28T21:26:51.655Z,86.80
2019-02-28T21:29:28.710Z,86.70
2019-02-28T21:32:05.736Z,87.60
2019-02-28T21:34:42.866Z,86.60
2019-02-28T21:37:20.155Z,81.70
2019-02-28T21:39:57.311Z,85.80
2019-02-28T21:42:34.585Z,79.00
2019-02-28T21:45:12.398Z,78.50
2019-02-28T21:47:49.415Z,81.10
2019-02-28T21:50:28.447Z,85.90
2019-02-28T21:53:05.062Z,85.10
2019-02-28T21:55:42.368Z,84.20
2019-02-28T22:00:54.306Z,83.80
2019-02-28T22:03:31.719Z,84.00
2019-02-28T22:06:08.862Z,84.80
2019-02-28T22:08:46.145Z,84.30
2019-02-28T22:16:34.616Z,83.40
2019-02-28T22:19:11.920Z,83.90
2019-02-28T22:26:59.911Z,85.00
2019-02-28T22:29:37.118Z,69.10
2019-02-28T22:32:26.634Z,68.90
2019-02-28T22:35:27.172Z,69.00
2019-02-28T22:38:04.395Z,68.20
2019-02-28T22:40:41.943Z,68.40
2019-02-28T22:43:19.060Z,68.00
2019-02-28T22:45:56.553Z,67.50
2019-02-28T22:48:33.682Z,68.20
2019-02-28T22:51:10.943Z,67.90
2019-02-28T22:53:48.077Z,67.80
2019-02-28T22:56:25.220Z,67.90
2019-02-28T22:59:04.563Z,68.60
2019-02-28T23:01:42.174Z,67.80
2019-02-28T23:04:19.260Z,67.70
2019-02-28T23:06:56.351Z,83.10
2019-02-28T23:09:33.440Z,81.30
2019-02-28T23:12:10.552Z,80.10
2019-02-28T23:14:47.689Z,66.60
2019-02-28T23:17:24.992Z,65.50
2019-02-28T23:20:02.191Z,86.00
2019-02-28T23:22:39.481Z,64.80
2019-02-28T23:25:16.624Z,64.80
2019-02-28T23:27:53.920Z,65.00
2019-02-28T23:31:00.903Z,64.60
2019-02-28T23:33:38.241Z,65.20
2019-02-28T23:36:15.289Z,65.30
2019-02-28T23:38:52.510Z,65.80
2019-02-28T23:41:29.681Z,66.20
2019-02-28T23:44:07.987Z,65.30
2019-02-28T23:46:45.307Z,65.50
2019-02-28T23:49:22.463Z,65.50
2019-02-28T23:51:59.654Z,66.30
2019-02-28T23:54:36.869Z,65.60
2019-02-28T23:57:14.629Z,65.10
2019-02-28T23:59:57.253Z,65.40
